Seattle, WA

11:19 PM PDT on September 17, 2014 (GMT -0700)
Queen Anne Southern Exposure | Change Station
CLOSE
Current Station
Personal Weather Station
Location: Seattle, WA
Elevation: 217 ft
Nearby Weather Stations
4.0 Earthquake: Seabeck, Washington (20 hours ago)  

Elev 217 ft 47.63 °N, 122.35 °W | Updated 4 minutes ago

Overcast
Overcast
62.6 °F
Feels Like 62.6 °F
N
5.0
Wind Variable Wind from ENE

Today
High -- | Low -- °F
--% Chance of Precip.
Yesterday
High -- | Low -- °F
Precip. -- in
6:49 AM 7:17 PM
Waning Crescent, 29% visible
Pressure 29.75 in
Visibility 10.0 miles
Clouds Few 8000 ft
Overcast 10000 ft
Dew Point 55 °F
Humidity 76%
Rainfall 0.00 in
Snow Depth 0 in , 0 in , 0 in
UV 0 out of 12
Pollen 1.70 out of 12
Air Quality Not available.
Flu Activity Not available.
METAR KBFI 180553Z 00000KT 10SM FEW080 OVC100 19/13 A2975 RMK AO2 SLP075 60000 T01940128 10211 20183 50001

More Conditions Fewer Conditions

Pressure 29.75 in
Visibility 10.0 miles
Clouds Few 8000 ft
Overcast 10000 ft
Dew Point 55 °F
Humidity 76%
Rainfall 0.00 in
Snow Depth 0 in , 0 in , 0 in
UV 0 out of 12
Pollen 1.70 out of 12
Air Quality Not available.
Flu Activity Not available.
METAR KBFI 180553Z 00000KT 10SM FEW080 OVC100 19/13 A2975 RMK AO2 SLP075 60000 T01940128 10211 20183 50001

More Conditions Fewer Conditions

10-Day Weather Forecast

Almanac

Astronomy

Sep. 17, 2014 Rise Set
Actual Time 6:49 AM PDT 7:17 PM PDT
Civil Twilight 6:18 AM PDT 7:48 PM PDT
Nautical Twilight 5:41 AM PDT 8:24 PM PDT
Astronomical Twilight 5:03 AM PDT 9:02 PM PDT
Moon 12:36 AM PDT (9/17) 3:48 PM PDT (9/17)
Length of Visible Light 13h 29m
Length of Day
12h 27m
Tomorrow will be 3m 24s shorter.
Waning Crescent, 29% of the Moon is Illuminated
Sep 18
Waning Crescent
Sep 24
New
Oct 1
First Quarter
Oct 8
Full
Oct 15
Last Quarter

Yesterday's Extremes

State Highs State Lows

Community

WunderPhotos

Upload Photos

1,754,298 photos uploaded!

Nearby

Air Quality

  Air Quality AQ Index Pollutant
Wednesday Good
PM2.5
Wednesday Good
OZONE
Thursday Good
OZONE
Thursday Good
PM2.5
Friday Good
OZONE
Friday Good
PM2.5
Saturday Good
PM2.5
Saturday Good
OZONE
Sunday Good
PM2.5
Sunday Good
OZONE
Monday Good
OZONE
Monday Good
PM2.5

Snow Depth

Station Depth Elevation
Pigtail Peak 0 in 5900 ft
Swift Creek 0 in 3770 ft
Bunchgrass Meadow 0 in 5000 ft
Pope Ridge 0 in 3540 ft
Spencer Meadow 0 in 3400 ft

Earthquake Activity

City Distance Mag. Time & Date
Seabeck, Washington 30 miles 4.0 3:06 AM PDT
2014-09-17
Morton, Washington 89 miles 3.0 5:43 AM PDT
2014-09-16
Minimum magnitude displayed is 2.5.

Coastal Water Temperatures

Place Temperature
Port Townsend, WA 52.0 °F
Seattle, WA 55.9 °F
Friday Harbor, WA 53.1 °F
Tacoma, WA 55.9 °F

Nearby Weather Stations